sensor_id;sensor_type;location;lat;lon;timestamp;temperature;humidity
14946;DHT22;7567;50.916;6.900;2023-02-11T00:01:52;6.50;99.90
14946;DHT22;7567;50.916;6.900;2023-02-11T00:04:18;6.60;99.90
14946;DHT22;7567;50.916;6.900;2023-02-11T00:06:44;6.60;99.90
14946;DHT22;7567;50.916;6.900;2023-02-11T00:09:10;6.50;99.90
14946;DHT22;7567;50.916;6.900;2023-02-11T00:11:36;6.50;99.90
14946;DHT22;7567;50.916;6.900;2023-02-11T00:14:04;6.50;99.90
14946;DHT22;7567;50.916;6.900;2023-02-11T00:16:30;6.40;99.90
14946;DHT22;7567;50.916;6.900;2023-02-11T00:19:01;6.30;99.90
14946;DHT22;7567;50.916;6.900;2023-02-11T00:21:28;6.30;99.90
14946;DHT22;7567;50.916;6.900;2023-02-11T00:23:55;6.40;99.90
14946;DHT22;7567;50.916;6.900;2023-02-11T00:26:24;6.40;99.90
14946;DHT22;7567;50.916;6.900;2023-02-11T00:28:51;6.40;99.90
14946;DHT22;7567;50.916;6.900;2023-02-11T00:31:18;6.40;99.90
14946;DHT22;7567;50.916;6.900;2023-02-11T00:33:45;6.30;99.90
14946;DHT22;7567;50.916;6.900;2023-02-11T00:36:14;6.50;99.90
14946;DHT22;7567;50.916;6.900;2023-02-11T00:38:42;6.60;99.90
14946;DHT22;7567;50.916;6.900;2023-02-11T00:41:09;6.60;99.90
14946;DHT22;7567;50.916;6.900;2023-02-11T00:43:35;6.50;99.90
14946;DHT22;7567;50.916;6.900;2023-02-11T00:46:01;6.60;99.90
14946;DHT22;7567;50.916;6.900;2023-02-11T00:48:26;6.50;99.90
14946;DHT22;7567;50.916;6.900;2023-02-11T00:50:52;6.50;99.90
14946;DHT22;7567;50.916;6.900;2023-02-11T00:53:18;6.40;99.90
14946;DHT22;7567;50.916;6.900;2023-02-11T00:55:44;6.40;99.90
14946;DHT22;7567;50.916;6.900;2023-02-11T00:58:10;6.20;99.90
14946;DHT22;7567;50.916;6.900;2023-02-11T01:00:36;6.20;99.90
14946;DHT22;7567;50.916;6.900;2023-02-11T01:03:02;6.20;99.90
14946;DHT22;7567;50.916;6.900;2023-02-11T01:05:28;6.10;99.90
14946;DHT22;7567;50.916;6.900;2023-02-11T01:07:54;6.00;99.90
14946;DHT22;7567;50.916;6.900;2023-02-11T01:10:20;5.90;99.90
14946;DHT22;7567;50.916;6.900;2023-02-11T01:12:45;5.90;99.90
14946;DHT22;7567;50.916;6.900;2023-02-11T01:15:14;5.90;99.90
14946;DHT22;7567;50.916;6.900;2023-02-11T01:17:40;5.90;99.90
14946;DHT22;7567;50.916;6.900;2023-02-11T01:20:08;5.90;99.90
14946;DHT22;7567;50.916;6.900;2023-02-11T01:22:36;5.70;99.90
14946;DHT22;7567;50.916;6.900;2023-02-11T01:25:07;5.60;99.90
14946;DHT22;7567;50.916;6.900;2023-02-11T01:27:33;5.60;99.90
14946;DHT22;7567;50.916;6.900;2023-02-11T01:29:59;5.50;99.90
14946;DHT22;7567;50.916;6.900;2023-02-11T01:32:25;5.40;99.90
14946;DHT22;7567;50.916;6.900;2023-02-11T01:34:51;5.30;99.90
14946;DHT22;7567;50.916;6.900;2023-02-11T01:37:17;5.50;99.90
14946;DHT22;7567;50.916;6.900;2023-02-11T01:39:43;5.40;99.90
14946;DHT22;7567;50.916;6.900;2023-02-11T01:42:21;5.40;99.90
14946;DHT22;7567;50.916;6.900;2023-02-11T01:44:51;5.40;99.90
14946;DHT22;7567;50.916;6.900;2023-02-11T01:47:20;5.40;99.90
14946;DHT22;7567;50.916;6.900;2023-02-11T01:49:51;5.30;99.90
14946;DHT22;7567;50.916;6.900;2023-02-11T01:52:25;5.20;99.90
14946;DHT22;7567;50.916;6.900;2023-02-11T01:54:56;5.10;99.90
14946;DHT22;7567;50.916;6.900;2023-02-11T01:57:46;5.20;99.90
14946;DHT22;7567;50.916;6.900;2023-02-11T02:00:17;5.10;99.90
14946;DHT22;7567;50.916;6.900;2023-02-11T02:05:53;5.20;99.90
14946;DHT22;7567;50.916;6.900;2023-02-11T02:10:55;5.30;99.90
14946;DHT22;7567;50.916;6.900;2023-02-11T02:13:26;5.40;99.90
14946;DHT22;7567;50.916;6.900;2023-02-11T02:15:57;5.50;99.90
14946;DHT22;7567;50.916;6.900;2023-02-11T02:18:35;5.70;99.90
14946;DHT22;7567;50.916;6.900;2023-02-11T02:23:53;5.70;99.90
14946;DHT22;7567;50.916;6.900;2023-02-11T02:32:36;5.80;99.90
14946;DHT22;7567;50.916;6.900;2023-02-11T02:35:08;5.80;99.90
14946;DHT22;7567;50.916;6.900;2023-02-11T02:40:49;5.80;99.90
14946;DHT22;7567;50.916;6.900;2023-02-11T02:43:17;5.80;99.90
14946;DHT22;7567;50.916;6.900;2023-02-11T02:45:43;5.80;99.90
14946;DHT22;7567;50.916;6.900;2023-02-11T02:48:27;5.80;99.90
14946;DHT22;7567;50.916;6.900;2023-02-11T03:02:23;5.70;99.90
14946;DHT22;7567;50.916;6.900;2023-02-11T03:05:11;5.60;99.90
14946;DHT22;7567;50.916;6.900;2023-02-11T03:08:08;5.50;99.90
14946;DHT22;7567;50.916;6.900;2023-02-11T03:10:47;5.40;99.90
14946;DHT22;7567;50.916;6.900;2023-02-11T03:13:15;5.40;99.90
14946;DHT22;7567;50.916;6.900;2023-02-11T03:15:46;5.30;99.90
14946;DHT22;7567;50.916;6.900;2023-02-11T03:18:16;5.30;99.90
14946;DHT22;7567;50.916;6.900;2023-02-11T03:20:46;5.20;99.90
14946;DHT22;7567;50.916;6.900;2023-02-11T03:25:52;5.10;99.90
14946;DHT22;7567;50.916;6.900;2023-02-11T03:29:22;5.20;99.90
14946;DHT22;7567;50.916;6.900;2023-02-11T03:32:00;5.40;99.90
14946;DHT22;7567;50.916;6.900;2023-02-11T03:34:46;5.50;99.90
14946;DHT22;7567;50.916;6.900;2023-02-11T03:37:27;5.50;99.90
14946;DHT22;7567;50.916;6.900;2023-02-11T03:40:07;5.60;99.90
14946;DHT22;7567;50.916;6.900;2023-02-11T03:42:45;5.60;99.90
14946;DHT22;7567;50.916;6.900;2023-02-11T03:45:15;5.70;99.90
14946;DHT22;7567;50.916;6.900;2023-02-11T03:47:47;5.60;99.90
14946;DHT22;7567;50.916;6.900;2023-02-11T03:50:15;5.70;99.90
14946;DHT22;7567;50.916;6.900;2023-02-11T03:52:43;5.70;99.90
14946;DHT22;7567;50.916;6.900;2023-02-11T03:55:13;5.70;99.90
14946;DHT22;7567;50.916;6.900;2023-02-11T03:57:40;5.60;99.90
14946;DHT22;7567;50.916;6.900;2023-02-11T04:00:07;5.60;99.90
14946;DHT22;7567;50.916;6.900;2023-02-11T04:02:36;5.50;99.90
14946;DHT22;7567;50.916;6.900;2023-02-11T04:05:04;5.50;99.90
14946;DHT22;7567;50.916;6.900;2023-02-11T04:07:31;5.40;99.90
14946;DHT22;7567;50.916;6.900;2023-02-11T04:09:57;5.40;99.90
14946;DHT22;7567;50.916;6.900;2023-02-11T04:12:23;5.50;99.90
14946;DHT22;7567;50.916;6.900;2023-02-11T04:14:49;5.40;99.90
14946;DHT22;7567;50.916;6.900;2023-02-11T04:17:16;5.50;99.90
14946;DHT22;7567;50.916;6.900;2023-02-11T04:19:41;5.50;99.90
14946;DHT22;7567;50.916;6.900;2023-02-11T04:22:07;5.70;99.90
14946;DHT22;7567;50.916;6.900;2023-02-11T04:24:33;5.60;99.90
14946;DHT22;7567;50.916;6.900;2023-02-11T04:26:59;5.50;99.90
14946;DHT22;7567;50.916;6.900;2023-02-11T04:29:25;5.60;99.90
14946;DHT22;7567;50.916;6.900;2023-02-11T04:31:51;5.70;99.90
14946;DHT22;7567;50.916;6.900;2023-02-11T04:34:17;5.70;99.90
14946;DHT22;7567;50.916;6.900;2023-02-11T04:36:43;5.70;99.90
14946;DHT22;7567;50.916;6.900;2023-02-11T04:39:08;5.70;99.90
14946;DHT22;7567;50.916;6.900;2023-02-11T04:41:34;5.70;99.90
14946;DHT22;7567;50.916;6.900;2023-02-11T04:44:00;5.70;99.90
14946;DHT22;7567;50.916;6.900;2023-02-11T04:46:26;5.70;99.90
14946;DHT22;7567;50.916;6.900;2023-02-11T04:48:52;5.80;99.90
14946;DHT22;7567;50.916;6.900;2023-02-11T04:51:17;5.80;99.90
14946;DHT22;7567;50.916;6.900;2023-02-11T04:53:43;5.80;99.90
14946;DHT22;7567;50.916;6.900;2023-02-11T04:56:09;5.80;99.90
14946;DHT22;7567;50.916;6.900;2023-02-11T04:58:35;5.70;99.90
14946;DHT22;7567;50.916;6.900;2023-02-11T05:01:11;5.70;99.90
14946;DHT22;7567;50.916;6.900;2023-02-11T05:03:38;5.70;99.90
14946;DHT22;7567;50.916;6.900;2023-02-11T05:06:05;5.70;99.90
14946;DHT22;7567;50.916;6.900;2023-02-11T05:08:31;5.70;99.90
14946;DHT22;7567;50.916;6.900;2023-02-11T05:10:57;5.90;99.90
14946;DHT22;7567;50.916;6.900;2023-02-11T05:13:23;5.90;99.90
14946;DHT22;7567;50.916;6.900;2023-02-11T05:15:49;5.90;99.90
14946;DHT22;7567;50.916;6.900;2023-02-11T05:18:15;5.90;99.90
14946;DHT22;7567;50.916;6.900;2023-02-11T05:20:42;5.80;99.90
14946;DHT22;7567;50.916;6.900;2023-02-11T05:23:08;5.80;99.90
14946;DHT22;7567;50.916;6.900;2023-02-11T05:25:34;5.70;99.90
14946;DHT22;7567;50.916;6.900;2023-02-11T05:28:00;5.70;99.90
14946;DHT22;7567;50.916;6.900;2023-02-11T05:30:26;5.80;99.90
14946;DHT22;7567;50.916;6.900;2023-02-11T05:32:52;5.80;99.90
14946;DHT22;7567;50.916;6.900;2023-02-11T05:35:18;5.90;99.90
14946;DHT22;7567;50.916;6.900;2023-02-11T05:37:44;5.90;99.90
14946;DHT22;7567;50.916;6.900;2023-02-11T05:40:10;5.90;99.90
14946;DHT22;7567;50.916;6.900;2023-02-11T05:42:36;5.90;99.90
14946;DHT22;7567;50.916;6.900;2023-02-11T05:45:02;5.80;99.90
14946;DHT22;7567;50.916;6.900;2023-02-11T05:47:29;5.80;99.90
14946;DHT22;7567;50.916;6.900;2023-02-11T05:49:54;5.80;99.90
14946;DHT22;7567;50.916;6.900;2023-02-11T05:52:21;5.80;99.90
14946;DHT22;7567;50.916;6.900;2023-02-11T05:54:48;5.90;99.90
14946;DHT22;7567;50.916;6.900;2023-02-11T05:57:14;5.90;99.90
14946;DHT22;7567;50.916;6.900;2023-02-11T05:59:40;5.90;99.90
14946;DHT22;7567;50.916;6.900;2023-02-11T06:02:08;5.80;99.90
14946;DHT22;7567;50.916;6.900;2023-02-11T06:04:35;5.80;99.90
14946;DHT22;7567;50.916;6.900;2023-02-11T06:07:01;5.80;99.90
14946;DHT22;7567;50.916;6.900;2023-02-11T06:09:27;5.80;99.90
14946;DHT22;7567;50.916;6.900;2023-02-11T06:11:53;5.80;99.90
14946;DHT22;7567;50.916;6.900;2023-02-11T06:14:19;5.80;99.90
14946;DHT22;7567;50.916;6.900;2023-02-11T06:16:45;5.80;99.90
14946;DHT22;7567;50.916;6.900;2023-02-11T06:19:11;5.80;99.90
14946;DHT22;7567;50.916;6.900;2023-02-11T06:21:37;5.90;99.90
14946;DHT22;7567;50.916;6.900;2023-02-11T06:24:04;5.90;99.90
14946;DHT22;7567;50.916;6.900;2023-02-11T06:26:30;5.90;99.90
14946;DHT22;7567;50.916;6.900;2023-02-11T06:28:59;5.90;99.90
14946;DHT22;7567;50.916;6.900;2023-02-11T06:31:25;5.90;99.90
14946;DHT22;7567;50.916;6.900;2023-02-11T06:33:51;5.80;99.90
14946;DHT22;7567;50.916;6.900;2023-02-11T06:36:21;5.80;99.90
14946;DHT22;7567;50.916;6.900;2023-02-11T06:38:47;5.90;99.90
14946;DHT22;7567;50.916;6.900;2023-02-11T06:41:15;5.90;99.90
14946;DHT22;7567;50.916;6.900;2023-02-11T06:43:41;5.90;99.90
14946;DHT22;7567;50.916;6.900;2023-02-11T06:46:08;5.90;99.90
14946;DHT22;7567;50.916;6.900;2023-02-11T06:48:34;5.90;99.90
14946;DHT22;7567;50.916;6.900;2023-02-11T06:51:05;5.90;99.90
14946;DHT22;7567;50.916;6.900;2023-02-11T06:53:35;6.00;99.90
14946;DHT22;7567;50.916;6.900;2023-02-11T06:56:03;6.00;99.90
14946;DHT22;7567;50.916;6.900;2023-02-11T06:58:29;5.90;99.90
14946;DHT22;7567;50.916;6.900;2023-02-11T07:00:55;6.00;99.90
14946;DHT22;7567;50.916;6.900;2023-02-11T07:03:21;6.00;99.90
14946;DHT22;7567;50.916;6.900;2023-02-11T07:05:47;6.00;99.90
14946;DHT22;7567;50.916;6.900;2023-02-11T07:08:13;6.10;99.90
14946;DHT22;7567;50.916;6.900;2023-02-11T07:10:38;6.00;99.90
14946;DHT22;7567;50.916;6.900;2023-02-11T07:13:04;6.00;99.90
14946;DHT22;7567;50.916;6.900;2023-02-11T07:15:30;6.00;99.90
14946;DHT22;7567;50.916;6.900;2023-02-11T07:17:56;6.10;99.90
14946;DHT22;7567;50.916;6.900;2023-02-11T07:20:22;6.10;99.90
14946;DHT22;7567;50.916;6.900;2023-02-11T07:22:48;6.10;99.90
14946;DHT22;7567;50.916;6.900;2023-02-11T07:25:14;6.10;99.90
14946;DHT22;7567;50.916;6.900;2023-02-11T07:27:40;6.10;99.90
14946;DHT22;7567;50.916;6.900;2023-02-11T07:30:06;6.00;99.90
14946;DHT22;7567;50.916;6.900;2023-02-11T07:32:32;6.10;99.90
14946;DHT22;7567;50.916;6.900;2023-02-11T07:34:58;6.00;99.90
14946;DHT22;7567;50.916;6.900;2023-02-11T07:37:23;6.10;99.90
14946;DHT22;7567;50.916;6.900;2023-02-11T07:39:49;6.00;99.90
14946;DHT22;7567;50.916;6.900;2023-02-11T07:42:15;6.10;99.90
14946;DHT22;7567;50.916;6.900;2023-02-11T07:44:41;6.10;99.90
14946;DHT22;7567;50.916;6.900;2023-02-11T07:47:07;6.10;99.90
14946;DHT22;7567;50.916;6.900;2023-02-11T07:49:33;6.10;99.90
14946;DHT22;7567;50.916;6.900;2023-02-11T07:51:58;6.20;99.90
14946;DHT22;7567;50.916;6.900;2023-02-11T07:54:24;6.20;99.90
14946;DHT22;7567;50.916;6.900;2023-02-11T07:56:50;6.20;99.90
14946;DHT22;7567;50.916;6.900;2023-02-11T07:59:16;6.30;99.90
14946;DHT22;7567;50.916;6.900;2023-02-11T08:01:42;6.30;99.90
14946;DHT22;7567;50.916;6.900;2023-02-11T08:04:07;6.30;99.90
14946;DHT22;7567;50.916;6.900;2023-02-11T08:06:34;6.20;99.90
14946;DHT22;7567;50.916;6.900;2023-02-11T08:09:07;6.20;99.90
14946;DHT22;7567;50.916;6.900;2023-02-11T08:11:34;6.20;99.90
14946;DHT22;7567;50.916;6.900;2023-02-11T08:14:00;6.30;99.90
14946;DHT22;7567;50.916;6.900;2023-02-11T08:16:34;6.30;99.90
14946;DHT22;7567;50.916;6.900;2023-02-11T08:19:02;6.30;99.90
14946;DHT22;7567;50.916;6.900;2023-02-11T08:21:29;6.30;99.90
14946;DHT22;7567;50.916;6.900;2023-02-11T08:23:55;6.30;99.90
14946;DHT22;7567;50.916;6.900;2023-02-11T08:26:24;6.30;99.90
14946;DHT22;7567;50.916;6.900;2023-02-11T08:28:52;6.30;99.90
14946;DHT22;7567;50.916;6.900;2023-02-11T08:31:21;6.30;99.90
14946;DHT22;7567;50.916;6.900;2023-02-11T08:33:47;6.40;99.90
14946;DHT22;7567;50.916;6.900;2023-02-11T08:36:16;6.40;99.90
14946;DHT22;7567;50.916;6.900;2023-02-11T08:38:43;6.30;99.90
14946;DHT22;7567;50.916;6.900;2023-02-11T08:41:10;6.40;99.90
14946;DHT22;7567;50.916;6.900;2023-02-11T08:43:36;6.40;99.90
14946;DHT22;7567;50.916;6.900;2023-02-11T08:46:07;6.30;99.90
14946;DHT22;7567;50.916;6.900;2023-02-11T08:48:33;6.40;99.90
14946;DHT22;7567;50.916;6.900;2023-02-11T08:50:59;6.50;99.90
14946;DHT22;7567;50.916;6.900;2023-02-11T08:53:25;6.50;99.90
14946;DHT22;7567;50.916;6.900;2023-02-11T08:55:53;6.50;99.90
14946;DHT22;7567;50.916;6.900;2023-02-11T08:58:20;6.60;99.90
14946;DHT22;7567;50.916;6.900;2023-02-11T09:00:47;6.60;99.90
14946;DHT22;7567;50.916;6.900;2023-02-11T09:03:14;6.50;99.90
14946;DHT22;7567;50.916;6.900;2023-02-11T09:05:46;6.50;99.90
14946;DHT22;7567;50.916;6.900;2023-02-11T09:08:13;6.60;99.90
14946;DHT22;7567;50.916;6.900;2023-02-11T09:10:39;6.50;99.90
14946;DHT22;7567;50.916;6.900;2023-02-11T09:13:05;6.50;99.90
14946;DHT22;7567;50.916;6.900;2023-02-11T09:15:32;6.50;99.90
14946;DHT22;7567;50.916;6.900;2023-02-11T09:17:58;6.60;99.90
14946;DHT22;7567;50.916;6.900;2023-02-11T09:20:24;6.60;99.90
14946;DHT22;7567;50.916;6.900;2023-02-11T09:22:52;6.60;99.90
14946;DHT22;7567;50.916;6.900;2023-02-11T09:25:18;6.60;99.90
14946;DHT22;7567;50.916;6.900;2023-02-11T09:27:44;6.60;99.90
14946;DHT22;7567;50.916;6.900;2023-02-11T09:30:11;6.70;99.90
14946;DHT22;7567;50.916;6.900;2023-02-11T09:32:36;6.70;99.90
14946;DHT22;7567;50.916;6.900;2023-02-11T09:35:03;6.70;99.90
14946;DHT22;7567;50.916;6.900;2023-02-11T09:37:29;6.70;99.90
14946;DHT22;7567;50.916;6.900;2023-02-11T09:39:54;6.70;99.90
14946;DHT22;7567;50.916;6.900;2023-02-11T09:45:03;6.80;99.90
14946;DHT22;7567;50.916;6.900;2023-02-11T09:47:31;6.80;99.90
14946;DHT22;7567;50.916;6.900;2023-02-11T09:50:10;6.80;99.90
14946;DHT22;7567;50.916;6.900;2023-02-11T09:52:47;6.90;99.90
14946;DHT22;7567;50.916;6.900;2023-02-11T09:55:21;6.90;99.90
14946;DHT22;7567;50.916;6.900;2023-02-11T09:57:48;6.80;99.90
14946;DHT22;7567;50.916;6.900;2023-02-11T10:00:21;6.80;99.90
14946;DHT22;7567;50.916;6.900;2023-02-11T10:08:11;7.00;99.90
14946;DHT22;7567;50.916;6.900;2023-02-11T10:10:51;6.90;99.90
14946;DHT22;7567;50.916;6.900;2023-02-11T10:16:23;7.00;99.90
14946;DHT22;7567;50.916;6.900;2023-02-11T10:19:12;7.00;99.90
14946;DHT22;7567;50.916;6.900;2023-02-11T10:22:31;7.00;99.90
14946;DHT22;7567;50.916;6.900;2023-02-11T10:24:40;7.20;99.90
14946;DHT22;7567;50.916;6.900;2023-02-11T10:27:19;7.20;99.90
14946;DHT22;7567;50.916;6.900;2023-02-11T10:29:56;7.30;99.90
14946;DHT22;7567;50.916;6.900;2023-02-11T10:35:00;7.20;99.90
14946;DHT22;7567;50.916;6.900;2023-02-11T10:37:27;7.20;99.90
14946;DHT22;7567;50.916;6.900;2023-02-11T10:39:53;7.20;99.90
14946;DHT22;7567;50.916;6.900;2023-02-11T10:42:19;7.20;99.90
14946;DHT22;7567;50.916;6.900;2023-02-11T10:44:58;7.20;99.90
14946;DHT22;7567;50.916;6.900;2023-02-11T10:47:30;7.20;99.90
14946;DHT22;7567;50.916;6.900;2023-02-11T10:49:57;7.20;99.90
14946;DHT22;7567;50.916;6.900;2023-02-11T10:52:28;7.20;99.90
14946;DHT22;7567;50.916;6.900;2023-02-11T10:55:20;7.20;99.90
14946;DHT22;7567;50.916;6.900;2023-02-11T10:57:57;7.30;99.90
14946;DHT22;7567;50.916;6.900;2023-02-11T11:00:34;7.30;99.90
14946;DHT22;7567;50.916;6.900;2023-02-11T11:03:14;7.30;99.90
14946;DHT22;7567;50.916;6.900;2023-02-11T11:06:02;7.30;99.90
14946;DHT22;7567;50.916;6.900;2023-02-11T11:08:43;7.30;99.90
14946;DHT22;7567;50.916;6.900;2023-02-11T11:11:15;7.30;99.90
14946;DHT22;7567;50.916;6.900;2023-02-11T11:16:25;7.30;99.90
14946;DHT22;7567;50.916;6.900;2023-02-11T11:27:21;7.30;99.90
14946;DHT22;7567;50.916;6.900;2023-02-11T11:29:53;7.30;99.90
14946;DHT22;7567;50.916;6.900;2023-02-11T11:32:24;7.30;99.90
14946;DHT22;7567;50.916;6.900;2023-02-11T11:34:53;7.30;99.90
14946;DHT22;7567;50.916;6.900;2023-02-11T11:42:29;7.50;99.90
14946;DHT22;7567;50.916;6.900;2023-02-11T11:45:17;7.40;99.90
14946;DHT22;7567;50.916;6.900;2023-02-11T11:50:39;7.40;99.90
14946;DHT22;7567;50.916;6.900;2023-02-11T11:56:20;7.50;99.90
14946;DHT22;7567;50.916;6.900;2023-02-11T11:58:48;7.40;99.90
14946;DHT22;7567;50.916;6.900;2023-02-11T12:13:15;7.60;99.90
14946;DHT22;7567;50.916;6.900;2023-02-11T12:19:10;7.60;99.90
14946;DHT22;7567;50.916;6.900;2023-02-11T12:27:55;7.60;99.90
14946;DHT22;7567;50.916;6.900;2023-02-11T12:30:19;7.60;99.90
14946;DHT22;7567;50.916;6.900;2023-02-11T12:36:01;7.70;99.90
14946;DHT22;7567;50.916;6.900;2023-02-11T12:44:25;7.50;99.90
14946;DHT22;7567;50.916;6.900;2023-02-11T12:54:45;7.60;99.90
14946;DHT22;7567;50.916;6.900;2023-02-11T12:57:25;7.60;99.90
14946;DHT22;7567;50.916;6.900;2023-02-11T13:05:26;7.60;99.90
14946;DHT22;7567;50.916;6.900;2023-02-11T13:08:01;7.50;99.90
14946;DHT22;7567;50.916;6.900;2023-02-11T13:10:40;7.60;99.90
14946;DHT22;7567;50.916;6.900;2023-02-11T13:16:39;7.60;99.90
14946;DHT22;7567;50.916;6.900;2023-02-11T13:24:43;7.60;99.90
14946;DHT22;7567;50.916;6.900;2023-02-11T13:38:03;7.60;99.90
14946;DHT22;7567;50.916;6.900;2023-02-11T13:40:35;7.60;99.90
14946;DHT22;7567;50.916;6.900;2023-02-11T13:43:04;7.60;99.90
14946;DHT22;7567;50.916;6.900;2023-02-11T13:45:36;7.50;99.90
14946;DHT22;7567;50.916;6.900;2023-02-11T13:48:13;7.50;99.90
14946;DHT22;7567;50.916;6.900;2023-02-11T13:50:46;7.60;99.90
14946;DHT22;7567;50.916;6.900;2023-02-11T13:53:13;7.60;99.90
14946;DHT22;7567;50.916;6.900;2023-02-11T13:55:44;7.60;99.90
14946;DHT22;7567;50.916;6.900;2023-02-11T14:06:11;7.60;99.90
14946;DHT22;7567;50.916;6.900;2023-02-11T14:14:25;7.60;99.90
14946;DHT22;7567;50.916;6.900;2023-02-11T14:19:39;7.80;99.90
14946;DHT22;7567;50.916;6.900;2023-02-11T14:38:30;8.00;99.90
14946;DHT22;7567;50.916;6.900;2023-02-11T14:41:02;7.90;99.90
14946;DHT22;7567;50.916;6.900;2023-02-11T14:43:39;8.10;99.90
14946;DHT22;7567;50.916;6.900;2023-02-11T14:46:06;8.00;99.90
14946;DHT22;7567;50.916;6.900;2023-02-11T14:48:35;8.00;99.90
14946;DHT22;7567;50.916;6.900;2023-02-11T14:51:09;8.10;99.90
14946;DHT22;7567;50.916;6.900;2023-02-11T14:53:37;8.00;99.90
14946;DHT22;7567;50.916;6.900;2023-02-11T14:56:18;8.10;99.90
14946;DHT22;7567;50.916;6.900;2023-02-11T14:58:47;8.00;99.90
14946;DHT22;7567;50.916;6.900;2023-02-11T15:01:32;8.10;99.90
14946;DHT22;7567;50.916;6.900;2023-02-11T15:04:01;8.10;99.90
14946;DHT22;7567;50.916;6.900;2023-02-11T15:06:36;8.00;99.90
14946;DHT22;7567;50.916;6.900;2023-02-11T15:09:36;8.10;99.90
14946;DHT22;7567;50.916;6.900;2023-02-11T15:12:03;8.00;99.90
14946;DHT22;7567;50.916;6.900;2023-02-11T15:14:32;8.00;99.90
14946;DHT22;7567;50.916;6.900;2023-02-11T15:17:03;8.10;99.90
14946;DHT22;7567;50.916;6.900;2023-02-11T15:21:59;8.20;99.90
14946;DHT22;7567;50.916;6.900;2023-02-11T15:24:29;8.20;99.90
14946;DHT22;7567;50.916;6.900;2023-02-11T15:26:57;8.20;99.90
14946;DHT22;7567;50.916;6.900;2023-02-11T15:29:24;8.10;99.90
14946;DHT22;7567;50.916;6.900;2023-02-11T15:32:16;8.20;99.90
14946;DHT22;7567;50.916;6.900;2023-02-11T15:34:43;8.10;99.90
14946;DHT22;7567;50.916;6.900;2023-02-11T15:37:24;8.20;99.90
14946;DHT22;7567;50.916;6.900;2023-02-11T15:39:52;8.10;99.90
14946;DHT22;7567;50.916;6.900;2023-02-11T15:42:29;8.10;99.90
14946;DHT22;7567;50.916;6.900;2023-02-11T15:45:21;8.20;99.90
14946;DHT22;7567;50.916;6.900;2023-02-11T15:50:38;8.10;99.90
14946;DHT22;7567;50.916;6.900;2023-02-11T15:55:40;8.10;99.90
14946;DHT22;7567;50.916;6.900;2023-02-11T15:58:08;8.10;99.90
14946;DHT22;7567;50.916;6.900;2023-02-11T16:00:45;8.10;99.90
14946;DHT22;7567;50.916;6.900;2023-02-11T16:03:22;8.10;99.90
14946;DHT22;7567;50.916;6.900;2023-02-11T16:05:48;8.10;99.90
14946;DHT22;7567;50.916;6.900;2023-02-11T16:08:28;8.10;99.90
14946;DHT22;7567;50.916;6.900;2023-02-11T16:11:02;8.10;99.90
14946;DHT22;7567;50.916;6.900;2023-02-11T16:13:45;8.10;99.90
14946;DHT22;7567;50.916;6.900;2023-02-11T16:16:37;8.00;99.90
14946;DHT22;7567;50.916;6.900;2023-02-11T16:19:03;8.00;99.90
14946;DHT22;7567;50.916;6.900;2023-02-11T16:21:35;8.00;99.90
14946;DHT22;7567;50.916;6.900;2023-02-11T16:24:13;7.90;99.90
14946;DHT22;7567;50.916;6.900;2023-02-11T16:26:50;7.90;99.90
14946;DHT22;7567;50.916;6.900;2023-02-11T16:29:22;7.90;99.90
14946;DHT22;7567;50.916;6.900;2023-02-11T16:31:49;7.90;99.90
14946;DHT22;7567;50.916;6.900;2023-02-11T16:34:23;8.00;99.90
14946;DHT22;7567;50.916;6.900;2023-02-11T16:36:49;7.90;99.90
14946;DHT22;7567;50.916;6.900;2023-02-11T16:39:17;8.00;99.90
14946;DHT22;7567;50.916;6.900;2023-02-11T16:41:43;7.90;99.90
14946;DHT22;7567;50.916;6.900;2023-02-11T16:44:09;7.90;99.90
14946;DHT22;7567;50.916;6.900;2023-02-11T16:46:35;7.90;99.90
14946;DHT22;7567;50.916;6.900;2023-02-11T16:49:17;7.90;99.90
14946;DHT22;7567;50.916;6.900;2023-02-11T16:51:48;7.80;99.90
14946;DHT22;7567;50.916;6.900;2023-02-11T16:54:16;7.80;99.90
14946;DHT22;7567;50.916;6.900;2023-02-11T16:56:42;7.80;99.90
14946;DHT22;7567;50.916;6.900;2023-02-11T16:59:08;7.80;99.90
14946;DHT22;7567;50.916;6.900;2023-02-11T17:01:37;7.80;99.90
14946;DHT22;7567;50.916;6.900;2023-02-11T17:04:04;7.90;99.90
14946;DHT22;7567;50.916;6.900;2023-02-11T17:06:32;7.90;99.90
14946;DHT22;7567;50.916;6.900;2023-02-11T17:08:58;7.90;99.90
14946;DHT22;7567;50.916;6.900;2023-02-11T17:11:24;7.80;99.90
14946;DHT22;7567;50.916;6.900;2023-02-11T17:13:50;7.80;99.90
14946;DHT22;7567;50.916;6.900;2023-02-11T17:16:20;7.80;99.90
14946;DHT22;7567;50.916;6.900;2023-02-11T17:18:47;7.80;99.90
14946;DHT22;7567;50.916;6.900;2023-02-11T17:21:13;7.80;99.90
14946;DHT22;7567;50.916;6.900;2023-02-11T17:23:39;7.80;99.90
14946;DHT22;7567;50.916;6.900;2023-02-11T17:26:05;7.80;99.90
14946;DHT22;7567;50.916;6.900;2023-02-11T17:28:31;7.80;99.90
14946;DHT22;7567;50.916;6.900;2023-02-11T17:30:58;7.80;99.90
14946;DHT22;7567;50.916;6.900;2023-02-11T17:33:24;7.80;99.90
14946;DHT22;7567;50.916;6.900;2023-02-11T17:35:50;7.70;99.90
14946;DHT22;7567;50.916;6.900;2023-02-11T17:38:15;7.70;99.90
14946;DHT22;7567;50.916;6.900;2023-02-11T17:40:41;7.60;99.90
14946;DHT22;7567;50.916;6.900;2023-02-11T17:43:07;7.60;99.90
14946;DHT22;7567;50.916;6.900;2023-02-11T17:45:33;7.60;99.90
14946;DHT22;7567;50.916;6.900;2023-02-11T17:48:00;7.50;99.90
14946;DHT22;7567;50.916;6.900;2023-02-11T17:50:26;7.60;99.90
14946;DHT22;7567;50.916;6.900;2023-02-11T17:52:52;7.50;99.90
14946;DHT22;7567;50.916;6.900;2023-02-11T17:55:18;7.50;99.90
14946;DHT22;7567;50.916;6.900;2023-02-11T17:57:44;7.50;99.90
14946;DHT22;7567;50.916;6.900;2023-02-11T18:00:10;7.50;99.90
14946;DHT22;7567;50.916;6.900;2023-02-11T18:02:36;7.50;99.90
14946;DHT22;7567;50.916;6.900;2023-02-11T18:05:02;7.40;99.90
14946;DHT22;7567;50.916;6.900;2023-02-11T18:07:28;7.50;99.90
14946;DHT22;7567;50.916;6.900;2023-02-11T18:09:54;7.50;99.90
14946;DHT22;7567;50.916;6.900;2023-02-11T18:12:23;7.50;99.90
14946;DHT22;7567;50.916;6.900;2023-02-11T18:14:52;7.50;99.90
14946;DHT22;7567;50.916;6.900;2023-02-11T18:17:22;7.40;99.90
14946;DHT22;7567;50.916;6.900;2023-02-11T18:19:48;7.40;99.90
14946;DHT22;7567;50.916;6.900;2023-02-11T18:22:15;7.40;99.90
14946;DHT22;7567;50.916;6.900;2023-02-11T18:24:42;7.30;99.90
14946;DHT22;7567;50.916;6.900;2023-02-11T18:27:08;7.30;99.90
14946;DHT22;7567;50.916;6.900;2023-02-11T18:29:34;7.30;99.90
14946;DHT22;7567;50.916;6.900;2023-02-11T18:32:00;7.30;99.90
14946;DHT22;7567;50.916;6.900;2023-02-11T18:34:26;7.30;99.90
14946;DHT22;7567;50.916;6.900;2023-02-11T18:36:53;7.30;99.90
14946;DHT22;7567;50.916;6.900;2023-02-11T18:39:19;7.30;99.90
14946;DHT22;7567;50.916;6.900;2023-02-11T18:41:48;7.30;99.90
14946;DHT22;7567;50.916;6.900;2023-02-11T18:44:19;7.30;99.90
14946;DHT22;7567;50.916;6.900;2023-02-11T18:46:48;7.30;99.90
14946;DHT22;7567;50.916;6.900;2023-02-11T18:49:13;7.20;99.90
14946;DHT22;7567;50.916;6.900;2023-02-11T18:51:39;7.20;99.90
14946;DHT22;7567;50.916;6.900;2023-02-11T18:54:05;7.20;99.90
14946;DHT22;7567;50.916;6.900;2023-02-11T18:56:31;7.20;99.90
14946;DHT22;7567;50.916;6.900;2023-02-11T18:58:57;7.10;99.90
14946;DHT22;7567;50.916;6.900;2023-02-11T19:01:26;7.10;99.90
14946;DHT22;7567;50.916;6.900;2023-02-11T19:03:54;7.20;99.90
14946;DHT22;7567;50.916;6.900;2023-02-11T19:06:26;7.10;99.90
14946;DHT22;7567;50.916;6.900;2023-02-11T19:08:53;7.20;99.90